createdAt,value
2023-02-02T00:04:32.466Z,101231.75
2023-02-02T00:09:33.962Z,101225.84
2023-02-02T00:14:35.370Z,101224.16
2023-02-02T00:19:36.985Z,101234.28
2023-02-02T00:24:38.369Z,101237.66
2023-02-02T00:29:39.910Z,101235.97
2023-02-02T00:34:41.295Z,101230.91
2023-02-02T00:39:42.667Z,101244.38
2023-02-02T00:45:02.728Z,101242.69
2023-02-02T00:50:04.456Z,101231.75
2023-02-02T00:55:06.543Z,101220.81
2023-02-02T01:00:12.073Z,101228.41
2023-02-02T01:05:13.967Z,101235.13
2023-02-02T01:10:18.103Z,101220.81
2023-02-02T01:15:19.658Z,101219.09
2023-02-02T01:20:21.281Z,101235.97
2023-02-02T01:25:22.904Z,101258.75
2023-02-02T01:30:24.444Z,101257.06
2023-02-02T01:35:26.097Z,101265.50
2023-02-02T01:40:27.728Z,101275.59
2023-02-02T01:45:29.316Z,101261.25
2023-02-02T01:50:34.444Z,101258.72
2023-02-02T01:55:39.618Z,101265.47
2023-02-02T02:00:45.046Z,101261.25
2023-02-02T02:05:54.672Z,101242.72
2023-02-02T02:10:56.938Z,101244.41
2023-02-02T02:16:19.326Z,101240.19
2023-02-02T02:22:23.718Z,101246.09
2023-02-02T02:27:47.282Z,101244.38
2023-02-02T02:33:14.502Z,101240.16
2023-02-02T02:38:28.170Z,101235.09
2023-02-02T02:43:34.875Z,101247.75
2023-02-02T02:48:36.337Z,101242.69
2023-02-02T02:53:37.988Z,101257.88
2023-02-02T02:59:05.903Z,101253.66
2023-02-02T03:04:18.580Z,101247.75
2023-02-02T03:09:25.382Z,101237.63
2023-02-02T03:14:26.792Z,101241.00
2023-02-02T03:19:28.212Z,101236.78
2023-02-02T03:24:29.616Z,101235.13
2023-02-02T03:29:31.082Z,101228.34
2023-02-02T03:34:32.539Z,101243.56
2023-02-02T03:39:33.947Z,101229.19
2023-02-02T03:44:35.444Z,101227.53
2023-02-02T03:49:36.894Z,101257.88
2023-02-02T03:54:38.282Z,101256.19
2023-02-02T03:59:39.644Z,101261.25
2023-02-02T04:04:41.044Z,101258.72
2023-02-02T04:09:42.426Z,101255.34
2023-02-02T04:14:43.900Z,101251.13
2023-02-02T04:19:45.307Z,101253.66
2023-02-02T04:24:46.722Z,101262.94
2023-02-02T04:29:48.189Z,101265.44
2023-02-02T04:34:49.559Z,101270.50
2023-02-02T04:39:50.997Z,101282.31
2023-02-02T04:44:52.373Z,101288.22
2023-02-02T04:49:53.750Z,101289.06
2023-02-02T04:54:55.130Z,101279.78
2023-02-02T04:59:56.520Z,101303.38
2023-02-02T05:04:58.122Z,101295.78
2023-02-02T05:09:59.551Z,101299.13
2023-02-02T05:15:02.124Z,101310.94
2023-02-02T05:20:03.746Z,101318.53
2023-02-02T05:25:06.631Z,101316.00
2023-02-02T05:30:10.438Z,101321.06
2023-02-02T05:35:12.005Z,101309.28
2023-02-02T05:40:13.388Z,101315.16
2023-02-02T05:45:15.111Z,101327.78
2023-02-02T05:50:16.679Z,101343.00
2023-02-02T05:55:20.017Z,101329.50
2023-02-02T06:00:22.045Z,101335.38
2023-02-02T06:05:23.808Z,101334.53
2023-02-02T06:10:25.560Z,101342.09
2023-02-02T06:15:28.940Z,101356.44
2023-02-02T06:20:30.440Z,101361.53
2023-02-02T06:25:31.896Z,101374.97
2023-02-02T06:30:33.321Z,101371.63
2023-02-02T06:35:35.143Z,101365.72
2023-02-02T06:40:36.619Z,101354.75
2023-02-02T06:45:40.162Z,101363.19
2023-02-02T06:50:41.642Z,101363.19
2023-02-02T06:55:43.014Z,101344.66
2023-02-02T07:00:44.399Z,101341.28
2023-02-02T07:05:45.784Z,101344.69
2023-02-02T07:11:13.165Z,101338.75
2023-02-02T07:16:12.914Z,101321.91
2023-02-02T07:21:20.727Z,101336.25
2023-02-02T07:26:22.137Z,101346.41
2023-02-02T07:31:26.010Z,101354.00
2023-02-02T07:36:27.496Z,101339.69
2023-02-02T07:41:28.901Z,101337.19
2023-02-02T07:46:30.422Z,101337.16
2023-02-02T07:51:31.819Z,101345.59
2023-02-02T07:56:33.441Z,101342.22
2023-02-02T08:01:34.867Z,101338.00
2023-02-02T08:06:38.459Z,101358.25
2023-02-02T08:11:39.845Z,101366.69
2023-02-02T08:16:41.290Z,101378.50
2023-02-02T08:21:42.689Z,101387.78
2023-02-02T08:26:44.168Z,101405.50
2023-02-02T08:31:45.922Z,101412.28
2023-02-02T08:36:47.378Z,101428.28
2023-02-02T08:41:48.788Z,101428.28
2023-02-02T08:46:50.391Z,101440.13
2023-02-02T08:51:51.785Z,101438.44
2023-02-02T08:56:53.199Z,101437.59
2023-02-02T09:01:54.602Z,101437.59
2023-02-02T09:06:55.992Z,101446.06
2023-02-02T09:11:57.376Z,101447.72
2023-02-02T09:16:58.881Z,101448.59
2023-02-02T09:22:00.342Z,101440.13
2023-02-02T09:27:01.872Z,101438.47
2023-02-02T09:32:03.483Z,101438.47
2023-02-02T09:37:05.105Z,101422.44
2023-02-02T09:42:19.662Z,101424.97
2023-02-02T09:47:25.813Z,101426.66
2023-02-02T09:52:48.969Z,101441.00
2023-02-02T09:57:55.659Z,101439.34
2023-02-02T10:03:18.987Z,101433.44
2023-02-02T10:08:46.518Z,101437.63
2023-02-02T10:13:50.680Z,101424.09
2023-02-02T10:18:59.589Z,101442.66
2023-02-02T10:24:03.474Z,101454.44
2023-02-02T10:29:26.208Z,101455.31
2023-02-02T10:34:47.431Z,101456.94
2023-02-02T10:40:07.596Z,101450.13
2023-02-02T10:45:20.451Z,101443.31
2023-02-02T10:50:22.535Z,101445.75
2023-02-02T10:55:51.749Z,101439.75
2023-02-02T11:00:55.799Z,101432.19
2023-02-02T11:06:18.427Z,101435.56
2023-02-02T11:11:40.091Z,101441.56
2023-02-02T11:16:44.517Z,101449.13
2023-02-02T11:21:53.275Z,101458.44
2023-02-02T11:27:12.897Z,101472.81
2023-02-02T11:32:27.565Z,101473.66
2023-02-02T11:37:29.746Z,101477.09
2023-02-02T11:42:31.239Z,101476.25
2023-02-02T11:47:33.892Z,101456.78
2023-02-02T11:52:37.377Z,101466.09
2023-02-02T11:57:38.804Z,101456.00
2023-02-02T12:02:46.748Z,101461.06
2023-02-02T12:07:49.004Z,101443.31
2023-02-02T12:12:59.858Z,101439.91
2023-02-02T12:18:19.708Z,101445.00
2023-02-02T12:23:27.164Z,101440.75
2023-02-02T12:28:43.138Z,101442.47
2023-02-02T12:34:02.935Z,101451.75
2023-02-02T12:39:11.094Z,101462.75
2023-02-02T12:44:28.128Z,101462.75
2023-02-02T12:50:03.467Z,101460.22
2023-02-02T12:55:10.809Z,101465.25
2023-02-02T13:00:19.813Z,101473.75
2023-02-02T13:05:44.152Z,101467.00
2023-02-02T13:10:49.051Z,101465.31
2023-02-02T13:15:59.570Z,101459.38
2023-02-02T13:21:02.585Z,101462.81
2023-02-02T13:26:15.325Z,101470.41
2023-02-02T13:31:22.683Z,101472.06
2023-02-02T13:36:29.993Z,101478.88
2023-02-02T13:41:31.695Z,101474.63
2023-02-02T13:46:59.656Z,101478.84
2023-02-02T13:52:39.256Z,101477.19
2023-02-02T13:58:00.404Z,101491.56
2023-02-02T14:03:16.662Z,101483.91
2023-02-02T14:08:21.534Z,101489.84
2023-02-02T14:13:52.389Z,101494.91
2023-02-02T14:18:55.371Z,101497.44
2023-02-02T14:23:58.128Z,101493.22
2023-02-02T14:28:59.591Z,101492.38
2023-02-02T14:34:40.086Z,101498.25
2023-02-02T14:40:01.664Z,101503.34
2023-02-02T14:45:12.271Z,101495.72
2023-02-02T14:50:28.857Z,101492.34
2023-02-02T14:55:30.983Z,101507.56
2023-02-02T15:00:35.263Z,101519.41
2023-02-02T15:05:39.101Z,101527.88
2023-02-02T15:10:56.679Z,101531.25
2023-02-02T15:16:10.205Z,101531.25
2023-02-02T15:21:16.887Z,101545.63
2023-02-02T15:26:24.740Z,101543.94
2023-02-02T15:31:40.291Z,101558.31
2023-02-02T15:36:45.388Z,101560.88
2023-02-02T15:41:49.953Z,101565.94
2023-02-02T15:46:53.278Z,101569.31
2023-02-02T15:51:57.656Z,101571.91
2023-02-02T15:57:03.496Z,101566.81
2023-02-02T16:02:23.007Z,101586.31
2023-02-02T16:07:31.086Z,101588.00
2023-02-02T16:12:34.105Z,101591.38
2023-02-02T16:17:38.690Z,101610.84
2023-02-02T16:22:42.302Z,101626.06
2023-02-02T16:27:46.324Z,101637.03
2023-02-02T16:32:47.746Z,101661.59
2023-02-02T16:37:49.147Z,101673.44
2023-02-02T16:43:27.596Z,101688.66
2023-02-02T16:48:33.815Z,101693.72
2023-02-02T16:53:36.245Z,101702.19
2023-02-02T16:58:43.890Z,101714.88
2023-02-02T17:03:50.547Z,101719.09
2023-02-02T17:08:51.957Z,101719.94
2023-02-02T17:13:57.702Z,101730.94
2023-02-02T17:18:59.106Z,101722.47
2023-02-02T17:24:01.240Z,101723.31
2023-02-02T17:29:05.205Z,101720.81
2023-02-02T17:34:17.079Z,101736.84
2023-02-02T17:39:18.657Z,101746.16
2023-02-02T17:44:20.040Z,101754.63
2023-02-02T17:49:21.545Z,101760.53
2023-02-02T17:54:22.951Z,101752.06
2023-02-02T17:59:24.379Z,101752.06
2023-02-02T18:04:26.955Z,101750.41
2023-02-02T18:09:33.855Z,101763.94
2023-02-02T18:14:35.391Z,101774.06
2023-02-02T18:19:39.068Z,101771.50
2023-02-02T18:24:41.094Z,101775.75
2023-02-02T18:29:42.824Z,101765.63
2023-02-02T18:34:44.911Z,101762.19
2023-02-02T18:39:46.362Z,101755.41
2023-02-02T18:44:47.769Z,101746.13
2023-02-02T18:49:49.250Z,101757.13
2023-02-02T18:54:50.739Z,101766.41
2023-02-02T18:59:52.934Z,101767.25
2023-02-02T19:05:13.252Z,101763.88
2023-02-02T19:10:15.019Z,101758.78
2023-02-02T19:15:16.972Z,101752.88
2023-02-02T19:20:25.971Z,101751.16
2023-02-02T19:25:28.360Z,101756.25
2023-02-02T19:30:30.008Z,101761.34
2023-02-02T19:35:32.090Z,101757.94
2023-02-02T19:40:33.671Z,101762.19
2023-02-02T19:45:35.301Z,101754.56
2023-02-02T19:50:40.792Z,101759.63
2023-02-02T19:55:44.257Z,101763.84
2023-02-02T20:00:47.996Z,101776.53
2023-02-02T20:05:51.717Z,101779.94
2023-02-02T20:10:55.887Z,101785.00
2023-02-02T20:16:03.924Z,101783.31
2023-02-02T20:21:15.821Z,101774.84
2023-02-02T20:26:26.061Z,101774.81
2023-02-02T20:31:35.913Z,101766.38
2023-02-02T20:36:40.410Z,101766.38
2023-02-02T20:41:43.856Z,101766.38
2023-02-02T20:46:45.340Z,101770.59
2023-02-02T20:51:46.802Z,101771.47
2023-02-02T20:56:48.352Z,101762.97
2023-02-02T21:01:51.220Z,101766.34
2023-02-02T21:06:52.865Z,101761.28
2023-02-02T21:11:54.288Z,101778.19
2023-02-02T21:17:09.058Z,101785.78
2023-02-02T21:22:15.651Z,101774.78
2023-02-02T21:27:17.121Z,101760.41
2023-02-02T21:32:18.495Z,101763.72
2023-02-02T21:37:19.901Z,101778.09
2023-02-02T21:42:22.961Z,101789.91
2023-02-02T21:47:29.173Z,101782.25
2023-02-02T21:52:33.710Z,101784.00
2023-02-02T21:57:37.012Z,101772.97
2023-02-02T22:02:44.145Z,101778.91
2023-02-02T22:07:48.678Z,101773.81
2023-02-02T22:12:50.058Z,101775.53
2023-02-02T22:17:51.501Z,101757.78
2023-02-02T22:22:53.003Z,101778.03
2023-02-02T22:28:00.191Z,101785.63
2023-02-02T22:33:01.981Z,101774.66
2023-02-02T22:38:04.449Z,101778.84
2023-02-02T22:43:06.528Z,101771.19
2023-02-02T22:48:08.245Z,101778.75
2023-02-02T22:53:10.115Z,101772.00
2023-02-02T22:58:11.576Z,101763.56
2023-02-02T23:03:13.019Z,101777.09
2023-02-02T23:08:14.437Z,101776.25
2023-02-02T23:13:15.925Z,101782.19
2023-02-02T23:18:17.487Z,101784.72
2023-02-02T23:23:18.861Z,101796.56
2023-02-02T23:28:20.311Z,101809.25
2023-02-02T23:33:21.737Z,101810.94
2023-02-02T23:38:23.359Z,101824.53
2023-02-02T23:43:24.809Z,101830.47
2023-02-02T23:48:26.249Z,101837.22
2023-02-02T23:53:28.148Z,101813.56
2023-02-02T23:58:29.693Z,101831.28
